Dunmore, West Virginia
Current Conditions -  °F | °C
As of 11:15 PM on Friday 19 Dec 2014 (Local Time) from KHSP Reporting Station
Clear Clear  
Wind Chill: 16°   Ceiling: Unl
Heat Index: 22°   Visibility: 10mi
Dew Point: 22°   Wind: 5mph
Humidity: 99%   Direction: 260°W
Pressure: 30.07"   Gusts: NA
Location:  38.36°N, 79.88°W
Report Text: KHSP 200415Z AUTO 26004KT 10SM CLR M06/M06 A3007 RMK AO2 T10561057
Loading
Personal Weather Stations






























Interactive Weather Map New forecast layout! Learn more

10-Day Weather Forecast

Advertisements
Track Severe Weather on mobile